sensor_id;sensor_type;location;lat;lon;timestamp;P1;durP1;ratioP1;P2;durP2;ratioP2
21424;SDS011;10873;51.132;16.848;2022-07-29T00:01:45;4.97;;;1.70;;
21424;SDS011;10873;51.132;16.848;2022-07-29T00:04:12;4.20;;;1.95;;
21424;SDS011;10873;51.132;16.848;2022-07-29T00:06:38;2.80;;;1.70;;
21424;SDS011;10873;51.132;16.848;2022-07-29T00:09:04;2.90;;;1.48;;
21424;SDS011;10873;51.132;16.848;2022-07-29T00:11:31;2.38;;;1.30;;
21424;SDS011;10873;51.132;16.848;2022-07-29T00:13:58;3.55;;;1.95;;
21424;SDS011;10873;51.132;16.848;2022-07-29T00:16:24;2.17;;;1.50;;
21424;SDS011;10873;51.132;16.848;2022-07-29T00:18:51;2.65;;;1.88;;
21424;SDS011;10873;51.132;16.848;2022-07-29T00:21:16;2.95;;;1.88;;
21424;SDS011;10873;51.132;16.848;2022-07-29T00:23:42;4.75;;;1.77;;
21424;SDS011;10873;51.132;16.848;2022-07-29T00:26:09;3.00;;;1.92;;
21424;SDS011;10873;51.132;16.848;2022-07-29T00:28:35;3.95;;;1.90;;
21424;SDS011;10873;51.132;16.848;2022-07-29T00:31:03;3.47;;;1.80;;
21424;SDS011;10873;51.132;16.848;2022-07-29T00:33:29;2.60;;;1.60;;
21424;SDS011;10873;51.132;16.848;2022-07-29T00:35:55;2.75;;;1.80;;
21424;SDS011;10873;51.132;16.848;2022-07-29T00:38:21;3.20;;;1.55;;
21424;SDS011;10873;51.132;16.848;2022-07-29T00:40:47;3.92;;;2.08;;
21424;SDS011;10873;51.132;16.848;2022-07-29T00:43:14;2.28;;;1.63;;
21424;SDS011;10873;51.132;16.848;2022-07-29T00:45:40;3.05;;;1.80;;
21424;SDS011;10873;51.132;16.848;2022-07-29T00:48:08;3.05;;;1.80;;
21424;SDS011;10873;51.132;16.848;2022-07-29T00:50:35;4.57;;;1.67;;
21424;SDS011;10873;51.132;16.848;2022-07-29T00:53:02;1.70;;;1.48;;
21424;SDS011;10873;51.132;16.848;2022-07-29T00:55:30;5.53;;;1.88;;
21424;SDS011;10873;51.132;16.848;2022-07-29T00:57:56;2.88;;;1.75;;
21424;SDS011;10873;51.132;16.848;2022-07-29T01:00:25;2.03;;;1.77;;
21424;SDS011;10873;51.132;16.848;2022-07-29T01:02:52;3.92;;;1.80;;
21424;SDS011;10873;51.132;16.848;2022-07-29T01:05:20;5.45;;;1.80;;
21424;SDS011;10873;51.132;16.848;2022-07-29T01:07:48;2.97;;;1.70;;
21424;SDS011;10873;51.132;16.848;2022-07-29T01:10:16;2.92;;;1.73;;
21424;SDS011;10873;51.132;16.848;2022-07-29T01:12:45;2.30;;;1.67;;
21424;SDS011;10873;51.132;16.848;2022-07-29T01:15:13;2.95;;;1.35;;
21424;SDS011;10873;51.132;16.848;2022-07-29T01:17:43;6.72;;;1.80;;
21424;SDS011;10873;51.132;16.848;2022-07-29T01:20:12;2.85;;;1.63;;
21424;SDS011;10873;51.132;16.848;2022-07-29T01:22:58;3.47;;;1.77;;
21424;SDS011;10873;51.132;16.848;2022-07-29T01:25:54;2.10;;;1.52;;
21424;SDS011;10873;51.132;16.848;2022-07-29T01:28:57;3.45;;;1.80;;
21424;SDS011;10873;51.132;16.848;2022-07-29T01:31:29;2.45;;;1.63;;
21424;SDS011;10873;51.132;16.848;2022-07-29T01:34:01;3.65;;;1.67;;
21424;SDS011;10873;51.132;16.848;2022-07-29T01:36:32;2.45;;;1.77;;
21424;SDS011;10873;51.132;16.848;2022-07-29T01:39:02;3.33;;;1.80;;
21424;SDS011;10873;51.132;16.848;2022-07-29T01:41:32;3.92;;;1.98;;
21424;SDS011;10873;51.132;16.848;2022-07-29T01:44:04;2.15;;;1.55;;
21424;SDS011;10873;51.132;16.848;2022-07-29T01:46:38;2.28;;;1.50;;
21424;SDS011;10873;51.132;16.848;2022-07-29T01:49:08;4.63;;;1.70;;
21424;SDS011;10873;51.132;16.848;2022-07-29T01:51:40;2.30;;;1.58;;
21424;SDS011;10873;51.132;16.848;2022-07-29T01:54:13;2.42;;;1.70;;
21424;SDS011;10873;51.132;16.848;2022-07-29T01:56:43;4.55;;;1.83;;
21424;SDS011;10873;51.132;16.848;2022-07-29T01:59:13;3.08;;;1.65;;
21424;SDS011;10873;51.132;16.848;2022-07-29T02:01:41;2.53;;;1.60;;
21424;SDS011;10873;51.132;16.848;2022-07-29T02:04:11;2.88;;;1.88;;
21424;SDS011;10873;51.132;16.848;2022-07-29T02:06:38;3.47;;;1.80;;
21424;SDS011;10873;51.132;16.848;2022-07-29T02:09:08;1.77;;;1.40;;
21424;SDS011;10873;51.132;16.848;2022-07-29T02:11:35;4.97;;;1.55;;
21424;SDS011;10873;51.132;16.848;2022-07-29T02:14:03;3.85;;;2.00;;
21424;SDS011;10873;51.132;16.848;2022-07-29T02:16:32;9.27;;;1.83;;
21424;SDS011;10873;51.132;16.848;2022-07-29T02:19:01;5.15;;;1.40;;
21424;SDS011;10873;51.132;16.848;2022-07-29T02:21:29;3.55;;;1.70;;
21424;SDS011;10873;51.132;16.848;2022-07-29T02:23:56;3.15;;;1.60;;
21424;SDS011;10873;51.132;16.848;2022-07-29T02:26:26;3.25;;;1.58;;
21424;SDS011;10873;51.132;16.848;2022-07-29T02:28:55;3.17;;;1.65;;
21424;SDS011;10873;51.132;16.848;2022-07-29T02:31:23;3.58;;;1.83;;
21424;SDS011;10873;51.132;16.848;2022-07-29T02:33:53;3.22;;;1.25;;
21424;SDS011;10873;51.132;16.848;2022-07-29T02:36:21;3.60;;;1.55;;
21424;SDS011;10873;51.132;16.848;2022-07-29T02:38:48;1.40;;;1.20;;
21424;SDS011;10873;51.132;16.848;2022-07-29T02:41:19;2.75;;;1.65;;
21424;SDS011;10873;51.132;16.848;2022-07-29T02:43:48;4.40;;;1.85;;
21424;SDS011;10873;51.132;16.848;2022-07-29T02:46:20;4.00;;;1.80;;
21424;SDS011;10873;51.132;16.848;2022-07-29T02:48:56;1.90;;;1.30;;
21424;SDS011;10873;51.132;16.848;2022-07-29T02:51:28;2.10;;;1.50;;
21424;SDS011;10873;51.132;16.848;2022-07-29T02:53:59;5.25;;;1.80;;
21424;SDS011;10873;51.132;16.848;2022-07-29T02:56:30;3.30;;;1.73;;
21424;SDS011;10873;51.132;16.848;2022-07-29T02:59:01;2.60;;;1.73;;
21424;SDS011;10873;51.132;16.848;2022-07-29T03:01:31;5.57;;;1.52;;
21424;SDS011;10873;51.132;16.848;2022-07-29T03:22:09;2.45;;;1.80;;
21424;SDS011;10873;51.132;16.848;2022-07-29T03:24:36;3.03;;;1.80;;
21424;SDS011;10873;51.132;16.848;2022-07-29T03:27:03;2.40;;;1.60;;
21424;SDS011;10873;51.132;16.848;2022-07-29T03:29:30;2.55;;;1.70;;
21424;SDS011;10873;51.132;16.848;2022-07-29T03:31:57;3.42;;;2.08;;
21424;SDS011;10873;51.132;16.848;2022-07-29T03:34:23;3.53;;;2.00;;
21424;SDS011;10873;51.132;16.848;2022-07-29T03:36:49;4.28;;;1.83;;
21424;SDS011;10873;51.132;16.848;2022-07-29T03:39:18;2.95;;;1.55;;
21424;SDS011;10873;51.132;16.848;2022-07-29T03:41:48;3.53;;;1.85;;
21424;SDS011;10873;51.132;16.848;2022-07-29T03:44:17;3.97;;;1.60;;
21424;SDS011;10873;51.132;16.848;2022-07-29T03:46:44;2.92;;;1.63;;
21424;SDS011;10873;51.132;16.848;2022-07-29T03:49:14;1.92;;;1.55;;
21424;SDS011;10873;51.132;16.848;2022-07-29T03:51:41;5.05;;;2.00;;
21424;SDS011;10873;51.132;16.848;2022-07-29T03:54:08;1.60;;;1.50;;
21424;SDS011;10873;51.132;16.848;2022-07-29T03:56:37;3.05;;;1.50;;
21424;SDS011;10873;51.132;16.848;2022-07-29T03:59:06;2.53;;;1.60;;
21424;SDS011;10873;51.132;16.848;2022-07-29T04:01:32;6.80;;;1.88;;
21424;SDS011;10873;51.132;16.848;2022-07-29T04:03:59;7.18;;;1.90;;
21424;SDS011;10873;51.132;16.848;2022-07-29T04:06:26;8.30;;;1.85;;
21424;SDS011;10873;51.132;16.848;2022-07-29T04:08:52;5.57;;;1.58;;
21424;SDS011;10873;51.132;16.848;2022-07-29T04:11:18;3.58;;;1.77;;
21424;SDS011;10873;51.132;16.848;2022-07-29T04:13:46;10.15;;;2.20;;
21424;SDS011;10873;51.132;16.848;2022-07-29T04:16:12;5.25;;;1.95;;
21424;SDS011;10873;51.132;16.848;2022-07-29T04:18:38;6.57;;;2.35;;
21424;SDS011;10873;51.132;16.848;2022-07-29T04:21:04;4.70;;;1.80;;
21424;SDS011;10873;51.132;16.848;2022-07-29T04:23:30;4.32;;;1.90;;
21424;SDS011;10873;51.132;16.848;2022-07-29T04:25:58;2.97;;;2.00;;
21424;SDS011;10873;51.132;16.848;2022-07-29T04:28:26;4.20;;;2.13;;
21424;SDS011;10873;51.132;16.848;2022-07-29T04:30:53;11.50;;;1.92;;
21424;SDS011;10873;51.132;16.848;2022-07-29T04:33:19;23.13;;;2.83;;
21424;SDS011;10873;51.132;16.848;2022-07-29T04:35:46;16.98;;;2.72;;
21424;SDS011;10873;51.132;16.848;2022-07-29T04:38:12;10.27;;;2.30;;
21424;SDS011;10873;51.132;16.848;2022-07-29T04:40:37;7.88;;;2.00;;
21424;SDS011;10873;51.132;16.848;2022-07-29T04:43:04;7.40;;;2.38;;
21424;SDS011;10873;51.132;16.848;2022-07-29T04:45:30;11.35;;;2.20;;
21424;SDS011;10873;51.132;16.848;2022-07-29T04:47:57;10.10;;;2.10;;
21424;SDS011;10873;51.132;16.848;2022-07-29T04:50:24;10.40;;;2.40;;
21424;SDS011;10873;51.132;16.848;2022-07-29T04:52:50;7.50;;;2.22;;
21424;SDS011;10873;51.132;16.848;2022-07-29T04:55:16;7.63;;;2.25;;
21424;SDS011;10873;51.132;16.848;2022-07-29T04:57:42;6.65;;;2.42;;
21424;SDS011;10873;51.132;16.848;2022-07-29T05:00:08;39.03;;;3.92;;
21424;SDS011;10873;51.132;16.848;2022-07-29T05:02:35;21.50;;;3.20;;
21424;SDS011;10873;51.132;16.848;2022-07-29T05:05:03;11.23;;;3.45;;
21424;SDS011;10873;51.132;16.848;2022-07-29T05:07:29;11.43;;;2.90;;
21424;SDS011;10873;51.132;16.848;2022-07-29T05:09:55;8.38;;;2.60;;
21424;SDS011;10873;51.132;16.848;2022-07-29T05:12:22;10.07;;;3.30;;
21424;SDS011;10873;51.132;16.848;2022-07-29T05:14:48;12.30;;;2.85;;
21424;SDS011;10873;51.132;16.848;2022-07-29T05:17:14;6.22;;;2.72;;
21424;SDS011;10873;51.132;16.848;2022-07-29T05:19:40;10.40;;;2.88;;
21424;SDS011;10873;51.132;16.848;2022-07-29T05:22:08;5.90;;;2.80;;
21424;SDS011;10873;51.132;16.848;2022-07-29T05:24:34;10.02;;;3.08;;
21424;SDS011;10873;51.132;16.848;2022-07-29T05:27:00;9.98;;;2.75;;
21424;SDS011;10873;51.132;16.848;2022-07-29T05:29:26;12.13;;;2.63;;
21424;SDS011;10873;51.132;16.848;2022-07-29T05:31:52;8.13;;;3.00;;
21424;SDS011;10873;51.132;16.848;2022-07-29T05:34:18;9.02;;;2.75;;
21424;SDS011;10873;51.132;16.848;2022-07-29T05:36:45;15.00;;;2.40;;
21424;SDS011;10873;51.132;16.848;2022-07-29T05:39:12;8.02;;;2.58;;
21424;SDS011;10873;51.132;16.848;2022-07-29T05:41:39;7.90;;;2.67;;
21424;SDS011;10873;51.132;16.848;2022-07-29T05:44:05;8.20;;;2.78;;
21424;SDS011;10873;51.132;16.848;2022-07-29T05:46:31;7.85;;;2.47;;
21424;SDS011;10873;51.132;16.848;2022-07-29T05:48:58;5.40;;;2.45;;
21424;SDS011;10873;51.132;16.848;2022-07-29T05:51:23;10.70;;;3.05;;
21424;SDS011;10873;51.132;16.848;2022-07-29T05:53:49;6.93;;;2.80;;
21424;SDS011;10873;51.132;16.848;2022-07-29T05:56:17;8.88;;;3.05;;
21424;SDS011;10873;51.132;16.848;2022-07-29T05:58:43;7.22;;;2.92;;
21424;SDS011;10873;51.132;16.848;2022-07-29T06:01:09;5.40;;;3.00;;
21424;SDS011;10873;51.132;16.848;2022-07-29T06:03:35;4.28;;;2.13;;
21424;SDS011;10873;51.132;16.848;2022-07-29T06:06:03;7.13;;;2.80;;
21424;SDS011;10873;51.132;16.848;2022-07-29T06:08:29;5.80;;;2.60;;
21424;SDS011;10873;51.132;16.848;2022-07-29T06:10:55;6.63;;;2.38;;
21424;SDS011;10873;51.132;16.848;2022-07-29T06:13:23;9.10;;;2.40;;
21424;SDS011;10873;51.132;16.848;2022-07-29T06:15:49;4.57;;;2.28;;
21424;SDS011;10873;51.132;16.848;2022-07-29T06:18:15;8.52;;;2.70;;
21424;SDS011;10873;51.132;16.848;2022-07-29T06:20:41;5.40;;;2.55;;
21424;SDS011;10873;51.132;16.848;2022-07-29T06:23:07;5.63;;;2.30;;
21424;SDS011;10873;51.132;16.848;2022-07-29T06:25:33;7.20;;;2.40;;
21424;SDS011;10873;51.132;16.848;2022-07-29T06:28:02;5.70;;;2.70;;
21424;SDS011;10873;51.132;16.848;2022-07-29T06:30:30;7.40;;;2.50;;
21424;SDS011;10873;51.132;16.848;2022-07-29T06:32:56;6.18;;;2.55;;
21424;SDS011;10873;51.132;16.848;2022-07-29T06:35:22;7.05;;;2.40;;
21424;SDS011;10873;51.132;16.848;2022-07-29T06:37:49;8.52;;;2.78;;
21424;SDS011;10873;51.132;16.848;2022-07-29T06:40:15;4.93;;;2.35;;
21424;SDS011;10873;51.132;16.848;2022-07-29T06:42:59;4.80;;;2.08;;
21424;SDS011;10873;51.132;16.848;2022-07-29T06:45:26;5.10;;;2.38;;
21424;SDS011;10873;51.132;16.848;2022-07-29T06:47:53;4.18;;;2.22;;
21424;SDS011;10873;51.132;16.848;2022-07-29T06:50:19;6.95;;;2.25;;
21424;SDS011;10873;51.132;16.848;2022-07-29T06:52:47;4.03;;;2.10;;
21424;SDS011;10873;51.132;16.848;2022-07-29T06:55:13;3.85;;;2.22;;
21424;SDS011;10873;51.132;16.848;2022-07-29T06:57:39;5.38;;;2.42;;
21424;SDS011;10873;51.132;16.848;2022-07-29T07:00:05;6.63;;;2.40;;
21424;SDS011;10873;51.132;16.848;2022-07-29T07:02:33;3.80;;;2.03;;
21424;SDS011;10873;51.132;16.848;2022-07-29T07:05:00;4.38;;;2.10;;
21424;SDS011;10873;51.132;16.848;2022-07-29T07:07:26;4.95;;;2.17;;
21424;SDS011;10873;51.132;16.848;2022-07-29T07:09:52;7.43;;;2.42;;
21424;SDS011;10873;51.132;16.848;2022-07-29T07:12:18;5.10;;;2.13;;
21424;SDS011;10873;51.132;16.848;2022-07-29T07:14:45;3.55;;;2.08;;
21424;SDS011;10873;51.132;16.848;2022-07-29T07:17:11;3.88;;;2.38;;
21424;SDS011;10873;51.132;16.848;2022-07-29T07:19:37;6.93;;;2.65;;
21424;SDS011;10873;51.132;16.848;2022-07-29T07:22:04;4.75;;;2.30;;
21424;SDS011;10873;51.132;16.848;2022-07-29T07:24:30;5.25;;;2.22;;
21424;SDS011;10873;51.132;16.848;2022-07-29T07:26:57;6.55;;;2.10;;
21424;SDS011;10873;51.132;16.848;2022-07-29T07:29:23;6.47;;;2.22;;
21424;SDS011;10873;51.132;16.848;2022-07-29T07:31:49;3.40;;;2.10;;
21424;SDS011;10873;51.132;16.848;2022-07-29T07:34:15;5.32;;;2.47;;
21424;SDS011;10873;51.132;16.848;2022-07-29T07:36:41;3.53;;;2.10;;
21424;SDS011;10873;51.132;16.848;2022-07-29T07:39:08;6.93;;;2.53;;
21424;SDS011;10873;51.132;16.848;2022-07-29T07:41:34;4.63;;;2.13;;
21424;SDS011;10873;51.132;16.848;2022-07-29T07:44:00;4.38;;;1.90;;
21424;SDS011;10873;51.132;16.848;2022-07-29T07:46:26;3.03;;;1.83;;
21424;SDS011;10873;51.132;16.848;2022-07-29T07:48:53;3.45;;;2.05;;
21424;SDS011;10873;51.132;16.848;2022-07-29T07:51:19;3.30;;;2.00;;
21424;SDS011;10873;51.132;16.848;2022-07-29T07:53:45;4.55;;;2.05;;
21424;SDS011;10873;51.132;16.848;2022-07-29T07:56:16;5.20;;;1.98;;
21424;SDS011;10873;51.132;16.848;2022-07-29T07:58:42;4.78;;;2.47;;
21424;SDS011;10873;51.132;16.848;2022-07-29T08:01:08;4.00;;;2.25;;
21424;SDS011;10873;51.132;16.848;2022-07-29T08:03:34;6.50;;;2.30;;
21424;SDS011;10873;51.132;16.848;2022-07-29T08:06:01;4.57;;;2.22;;
21424;SDS011;10873;51.132;16.848;2022-07-29T08:08:27;2.80;;;2.00;;
21424;SDS011;10873;51.132;16.848;2022-07-29T08:10:53;6.25;;;2.13;;
21424;SDS011;10873;51.132;16.848;2022-07-29T08:13:23;6.70;;;1.75;;
21424;SDS011;10873;51.132;16.848;2022-07-29T08:15:52;2.80;;;2.00;;
21424;SDS011;10873;51.132;16.848;2022-07-29T08:18:26;3.30;;;2.20;;
21424;SDS011;10873;51.132;16.848;2022-07-29T08:20:52;4.20;;;2.10;;
21424;SDS011;10873;51.132;16.848;2022-07-29T08:23:18;2.72;;;2.00;;
21424;SDS011;10873;51.132;16.848;2022-07-29T08:25:45;3.10;;;1.48;;
21424;SDS011;10873;51.132;16.848;2022-07-29T08:28:11;5.18;;;2.35;;
21424;SDS011;10873;51.132;16.848;2022-07-29T08:30:38;3.88;;;2.25;;
21424;SDS011;10873;51.132;16.848;2022-07-29T08:33:04;2.83;;;2.05;;
21424;SDS011;10873;51.132;16.848;2022-07-29T08:35:31;2.45;;;2.00;;
21424;SDS011;10873;51.132;16.848;2022-07-29T08:37:57;3.50;;;2.00;;
21424;SDS011;10873;51.132;16.848;2022-07-29T08:40:24;2.90;;;2.17;;
21424;SDS011;10873;51.132;16.848;2022-07-29T08:42:50;4.53;;;2.40;;
21424;SDS011;10873;51.132;16.848;2022-07-29T08:45:16;4.05;;;2.45;;
21424;SDS011;10873;51.132;16.848;2022-07-29T08:47:44;12.85;;;2.47;;
21424;SDS011;10873;51.132;16.848;2022-07-29T08:50:12;7.05;;;2.33;;
21424;SDS011;10873;51.132;16.848;2022-07-29T08:52:39;5.35;;;2.13;;
21424;SDS011;10873;51.132;16.848;2022-07-29T08:55:07;11.20;;;1.80;;
21424;SDS011;10873;51.132;16.848;2022-07-29T08:57:35;5.07;;;1.80;;
21424;SDS011;10873;51.132;16.848;2022-07-29T09:00:02;9.90;;;2.13;;
21424;SDS011;10873;51.132;16.848;2022-07-29T09:02:38;5.72;;;2.28;;
21424;SDS011;10873;51.132;16.848;2022-07-29T09:05:07;9.95;;;2.13;;
21424;SDS011;10873;51.132;16.848;2022-07-29T09:07:34;5.20;;;2.13;;
21424;SDS011;10873;51.132;16.848;2022-07-29T09:10:01;4.78;;;2.28;;
21424;SDS011;10873;51.132;16.848;2022-07-29T09:12:29;4.38;;;1.90;;
21424;SDS011;10873;51.132;16.848;2022-07-29T09:14:55;5.60;;;2.28;;
21424;SDS011;10873;51.132;16.848;2022-07-29T09:20:12;3.75;;;1.90;;
21424;SDS011;10873;51.132;16.848;2022-07-29T09:22:40;6.15;;;2.15;;
21424;SDS011;10873;51.132;16.848;2022-07-29T09:25:06;5.90;;;2.20;;
21424;SDS011;10873;51.132;16.848;2022-07-29T09:27:32;5.38;;;1.90;;
21424;SDS011;10873;51.132;16.848;2022-07-29T09:30:00;7.38;;;2.00;;
21424;SDS011;10873;51.132;16.848;2022-07-29T09:32:29;3.72;;;1.90;;
21424;SDS011;10873;51.132;16.848;2022-07-29T09:37:48;5.72;;;1.95;;
21424;SDS011;10873;51.132;16.848;2022-07-29T09:40:15;2.67;;;1.77;;
21424;SDS011;10873;51.132;16.848;2022-07-29T09:42:42;5.78;;;1.85;;
21424;SDS011;10873;51.132;16.848;2022-07-29T09:45:09;5.07;;;2.00;;
21424;SDS011;10873;51.132;16.848;2022-07-29T09:47:43;7.28;;;1.85;;
21424;SDS011;10873;51.132;16.848;2022-07-29T09:50:11;8.00;;;2.13;;
21424;SDS011;10873;51.132;16.848;2022-07-29T09:52:45;5.45;;;2.17;;
21424;SDS011;10873;51.132;16.848;2022-07-29T09:55:13;5.40;;;1.92;;
21424;SDS011;10873;51.132;16.848;2022-07-29T09:57:39;3.67;;;1.88;;
21424;SDS011;10873;51.132;16.848;2022-07-29T10:00:06;4.53;;;1.85;;
21424;SDS011;10873;51.132;16.848;2022-07-29T10:02:35;5.65;;;2.20;;
21424;SDS011;10873;51.132;16.848;2022-07-29T10:05:03;6.30;;;2.28;;
21424;SDS011;10873;51.132;16.848;2022-07-29T10:07:42;7.25;;;2.00;;
21424;SDS011;10873;51.132;16.848;2022-07-29T10:10:18;6.32;;;2.40;;
21424;SDS011;10873;51.132;16.848;2022-07-29T10:12:49;5.40;;;2.15;;
21424;SDS011;10873;51.132;16.848;2022-07-29T10:15:17;5.18;;;1.92;;
21424;SDS011;10873;51.132;16.848;2022-07-29T10:17:43;8.25;;;2.00;;
21424;SDS011;10873;51.132;16.848;2022-07-29T10:20:10;5.35;;;1.95;;
21424;SDS011;10873;51.132;16.848;2022-07-29T10:22:36;11.23;;;2.00;;
21424;SDS011;10873;51.132;16.848;2022-07-29T10:25:05;5.22;;;2.10;;
21424;SDS011;10873;51.132;16.848;2022-07-29T10:27:31;11.27;;;2.10;;
21424;SDS011;10873;51.132;16.848;2022-07-29T10:29:57;3.83;;;2.20;;
21424;SDS011;10873;51.132;16.848;2022-07-29T10:32:35;4.45;;;1.85;;
21424;SDS011;10873;51.132;16.848;2022-07-29T10:35:15;2.42;;;1.88;;
21424;SDS011;10873;51.132;16.848;2022-07-29T10:37:59;8.60;;;2.75;;
21424;SDS011;10873;51.132;16.848;2022-07-29T10:40:43;4.38;;;2.42;;
21424;SDS011;10873;51.132;16.848;2022-07-29T10:43:36;4.65;;;2.10;;
21424;SDS011;10873;51.132;16.848;2022-07-29T10:46:07;3.65;;;1.92;;
21424;SDS011;10873;51.132;16.848;2022-07-29T10:48:35;5.63;;;2.53;;
21424;SDS011;10873;51.132;16.848;2022-07-29T10:51:22;3.28;;;2.58;;
21424;SDS011;10873;51.132;16.848;2022-07-29T10:53:49;4.45;;;2.17;;
21424;SDS011;10873;51.132;16.848;2022-07-29T10:56:27;4.13;;;2.03;;
21424;SDS011;10873;51.132;16.848;2022-07-29T11:01:54;5.63;;;2.10;;
21424;SDS011;10873;51.132;16.848;2022-07-29T11:07:24;4.22;;;2.13;;
21424;SDS011;10873;51.132;16.848;2022-07-29T11:12:55;4.32;;;2.05;;
21424;SDS011;10873;51.132;16.848;2022-07-29T11:15:21;3.38;;;2.25;;
21424;SDS011;10873;51.132;16.848;2022-07-29T11:18:07;5.60;;;2.20;;
21424;SDS011;10873;51.132;16.848;2022-07-29T11:20:35;3.63;;;2.00;;
21424;SDS011;10873;51.132;16.848;2022-07-29T11:23:20;5.07;;;1.80;;
21424;SDS011;10873;51.132;16.848;2022-07-29T11:28:38;3.75;;;2.03;;
21424;SDS011;10873;51.132;16.848;2022-07-29T11:31:35;3.95;;;2.10;;
21424;SDS011;10873;51.132;16.848;2022-07-29T11:44:22;6.25;;;1.90;;
21424;SDS011;10873;51.132;16.848;2022-07-29T11:47:32;4.10;;;2.65;;
21424;SDS011;10873;51.132;16.848;2022-07-29T11:50:00;2.67;;;2.05;;
21424;SDS011;10873;51.132;16.848;2022-07-29T11:52:32;3.83;;;2.00;;
21424;SDS011;10873;51.132;16.848;2022-07-29T11:55:03;2.38;;;2.00;;
21424;SDS011;10873;51.132;16.848;2022-07-29T11:57:32;3.65;;;2.00;;
21424;SDS011;10873;51.132;16.848;2022-07-29T12:00:07;7.07;;;2.15;;
21424;SDS011;10873;51.132;16.848;2022-07-29T12:02:42;2.47;;;2.00;;
21424;SDS011;10873;51.132;16.848;2022-07-29T12:05:11;2.90;;;2.20;;
21424;SDS011;10873;51.132;16.848;2022-07-29T12:07:38;2.85;;;2.08;;
21424;SDS011;10873;51.132;16.848;2022-07-29T12:10:05;3.03;;;2.38;;
21424;SDS011;10873;51.132;16.848;2022-07-29T12:12:33;5.82;;;2.45;;
21424;SDS011;10873;51.132;16.848;2022-07-29T12:15:11;7.47;;;2.13;;
21424;SDS011;10873;51.132;16.848;2022-07-29T12:17:39;3.22;;;2.15;;
21424;SDS011;10873;51.132;16.848;2022-07-29T12:20:05;2.33;;;2.13;;
21424;SDS011;10873;51.132;16.848;2022-07-29T12:22:32;2.85;;;2.50;;
21424;SDS011;10873;51.132;16.848;2022-07-29T12:25:00;2.92;;;2.20;;
21424;SDS011;10873;51.132;16.848;2022-07-29T12:27:28;4.75;;;2.25;;
21424;SDS011;10873;51.132;16.848;2022-07-29T12:29:55;2.70;;;2.13;;
21424;SDS011;10873;51.132;16.848;2022-07-29T12:32:23;3.22;;;2.58;;
21424;SDS011;10873;51.132;16.848;2022-07-29T12:34:56;2.97;;;2.10;;
21424;SDS011;10873;51.132;16.848;2022-07-29T12:37:22;2.20;;;2.00;;
21424;SDS011;10873;51.132;16.848;2022-07-29T12:39:48;2.22;;;2.00;;
21424;SDS011;10873;51.132;16.848;2022-07-29T12:42:15;3.15;;;2.40;;
21424;SDS011;10873;51.132;16.848;2022-07-29T12:44:43;4.78;;;2.20;;
21424;SDS011;10873;51.132;16.848;2022-07-29T12:47:10;4.05;;;2.50;;
21424;SDS011;10873;51.132;16.848;2022-07-29T12:49:38;5.38;;;2.30;;
21424;SDS011;10873;51.132;16.848;2022-07-29T12:54:55;2.85;;;2.38;;
21424;SDS011;10873;51.132;16.848;2022-07-29T12:57:22;3.22;;;2.50;;
21424;SDS011;10873;51.132;16.848;2022-07-29T13:00:03;7.20;;;2.30;;
21424;SDS011;10873;51.132;16.848;2022-07-29T13:02:33;2.63;;;2.42;;
21424;SDS011;10873;51.132;16.848;2022-07-29T13:05:01;5.82;;;2.50;;
21424;SDS011;10873;51.132;16.848;2022-07-29T13:07:29;4.07;;;2.65;;
21424;SDS011;10873;51.132;16.848;2022-07-29T13:10:09;2.63;;;2.28;;
21424;SDS011;10873;51.132;16.848;2022-07-29T13:12:37;4.60;;;2.50;;
21424;SDS011;10873;51.132;16.848;2022-07-29T13:15:11;2.42;;;2.10;;
21424;SDS011;10873;51.132;16.848;2022-07-29T13:17:40;3.65;;;2.35;;
21424;SDS011;10873;51.132;16.848;2022-07-29T13:20:09;7.32;;;2.40;;
21424;SDS011;10873;51.132;16.848;2022-07-29T13:22:40;4.93;;;2.50;;
21424;SDS011;10873;51.132;16.848;2022-07-29T13:25:08;3.10;;;2.35;;
21424;SDS011;10873;51.132;16.848;2022-07-29T13:27:35;2.45;;;2.25;;
21424;SDS011;10873;51.132;16.848;2022-07-29T13:30:04;2.50;;;2.30;;
21424;SDS011;10873;51.132;16.848;2022-07-29T13:32:31;2.83;;;2.28;;
21424;SDS011;10873;51.132;16.848;2022-07-29T13:35:02;3.65;;;2.25;;
21424;SDS011;10873;51.132;16.848;2022-07-29T13:37:32;2.20;;;2.00;;
21424;SDS011;10873;51.132;16.848;2022-07-29T13:39:59;2.55;;;2.30;;
21424;SDS011;10873;51.132;16.848;2022-07-29T13:42:26;4.05;;;2.47;;
21424;SDS011;10873;51.132;16.848;2022-07-29T13:44:53;7.43;;;2.50;;
21424;SDS011;10873;51.132;16.848;2022-07-29T13:47:19;5.75;;;2.60;;
21424;SDS011;10873;51.132;16.848;2022-07-29T13:49:46;3.70;;;2.30;;
21424;SDS011;10873;51.132;16.848;2022-07-29T13:52:12;12.00;;;2.45;;
21424;SDS011;10873;51.132;16.848;2022-07-29T13:54:40;5.68;;;2.53;;
21424;SDS011;10873;51.132;16.848;2022-07-29T13:57:06;5.78;;;2.42;;
21424;SDS011;10873;51.132;16.848;2022-07-29T13:59:32;4.65;;;2.40;;
21424;SDS011;10873;51.132;16.848;2022-07-29T14:01:59;5.75;;;2.83;;
21424;SDS011;10873;51.132;16.848;2022-07-29T14:04:25;6.05;;;2.60;;
21424;SDS011;10873;51.132;16.848;2022-07-29T14:06:51;4.95;;;2.70;;
21424;SDS011;10873;51.132;16.848;2022-07-29T14:09:17;3.53;;;2.40;;
21424;SDS011;10873;51.132;16.848;2022-07-29T14:11:45;3.90;;;2.78;;
21424;SDS011;10873;51.132;16.848;2022-07-29T14:14:11;2.78;;;2.42;;
21424;SDS011;10873;51.132;16.848;2022-07-29T14:16:37;3.63;;;2.60;;
21424;SDS011;10873;51.132;16.848;2022-07-29T14:19:03;5.75;;;3.00;;
21424;SDS011;10873;51.132;16.848;2022-07-29T14:21:29;4.32;;;2.60;;
21424;SDS011;10873;51.132;16.848;2022-07-29T14:23:55;2.88;;;2.42;;
21424;SDS011;10873;51.132;16.848;2022-07-29T14:26:22;3.20;;;2.40;;
21424;SDS011;10873;51.132;16.848;2022-07-29T14:28:49;5.55;;;2.70;;
21424;SDS011;10873;51.132;16.848;2022-07-29T14:31:15;3.10;;;2.50;;
21424;SDS011;10873;51.132;16.848;2022-07-29T14:33:42;5.60;;;2.50;;
21424;SDS011;10873;51.132;16.848;2022-07-29T14:36:08;7.05;;;2.78;;
21424;SDS011;10873;51.132;16.848;2022-07-29T14:38:34;7.22;;;2.70;;
21424;SDS011;10873;51.132;16.848;2022-07-29T14:41:00;5.25;;;2.63;;
21424;SDS011;10873;51.132;16.848;2022-07-29T14:43:26;6.10;;;2.60;;
21424;SDS011;10873;51.132;16.848;2022-07-29T14:45:54;3.45;;;2.58;;
21424;SDS011;10873;51.132;16.848;2022-07-29T14:48:20;3.65;;;2.85;;
21424;SDS011;10873;51.132;16.848;2022-07-29T14:50:46;3.83;;;2.80;;
21424;SDS011;10873;51.132;16.848;2022-07-29T14:53:12;3.05;;;2.70;;
21424;SDS011;10873;51.132;16.848;2022-07-29T14:55:38;4.70;;;2.63;;
21424;SDS011;10873;51.132;16.848;2022-07-29T14:58:05;3.92;;;2.58;;
21424;SDS011;10873;51.132;16.848;2022-07-29T15:00:31;4.25;;;2.60;;
21424;SDS011;10873;51.132;16.848;2022-07-29T15:03:00;5.30;;;2.80;;
21424;SDS011;10873;51.132;16.848;2022-07-29T15:05:26;5.65;;;2.63;;
21424;SDS011;10873;51.132;16.848;2022-07-29T15:07:52;3.28;;;2.60;;
21424;SDS011;10873;51.132;16.848;2022-07-29T15:10:19;3.65;;;2.60;;
21424;SDS011;10873;51.132;16.848;2022-07-29T15:12:45;3.13;;;2.70;;
21424;SDS011;10873;51.132;16.848;2022-07-29T15:15:11;5.22;;;2.85;;
21424;SDS011;10873;51.132;16.848;2022-07-29T15:17:37;4.30;;;2.70;;
21424;SDS011;10873;51.132;16.848;2022-07-29T15:20:05;3.78;;;2.47;;
21424;SDS011;10873;51.132;16.848;2022-07-29T15:22:31;3.22;;;2.50;;
21424;SDS011;10873;51.132;16.848;2022-07-29T15:24:58;3.03;;;2.50;;
21424;SDS011;10873;51.132;16.848;2022-07-29T15:27:24;3.10;;;2.63;;
21424;SDS011;10873;51.132;16.848;2022-07-29T15:29:50;2.67;;;2.40;;